M. Luther — WDC7372 — position and weather

sailwx.info

Track history (hours):
 
Tides and Currents Weather Stations Pressure Air Temp Water Temp Dewpoint Dewpoint Depression Visibility Wind Speed Wind Dir Waves Ship Positions

M. Luther

Owner: Salmon Bay Barge Line, Inc., Seattle, WA. More information available from US FCC via Universal Licensing System and Coast Guard Vessel Documentation Center.

Last reported at 2016-Dec-10 23:33 UTC. Time now 2016-Dec-11 00:29 UTC.
Position N 47°33' W 122°21'.

Length 28 m; draft 4.1 m.

Type: Tow > 200 m length. MMSI: 367070410.

Date/timePositionNaut miles runAvg speedWind from/ knotsBaromVisibWave heightAir tempDewpointWater temp
2016-Dec-10 23:33N 47°33' W 122°21'0 0.0
2016-Dec-10 22:33N 47°33' W 122°21'0 0.0
2016-Dec-10 21:33N 47°33' W 122°21'0 0.0
2016-Dec-10 20:33N 47°33' W 122°21'0 0.0
2016-Dec-10 19:33N 47°33' W 122°21'0 0.0
2016-Dec-10 18:33N 47°33' W 122°21'0 0.0
2016-Dec-10 17:33N 47°33' W 122°21'0 0.0
2016-Dec-10 16:33N 47°33' W 122°21'0 0.0
2016-Dec-10 15:33N 47°33' W 122°21'0 0.0
2016-Dec-10 14:33N 47°33' W 122°21'0 0.0
2016-Dec-10 13:33N 47°33' W 122°21'0 0.0
2016-Dec-10 12:33N 47°33' W 122°21'0 0.0
2016-Dec-10 11:33N 47°33' W 122°21'0 0.0
2016-Dec-10 10:33N 47°33' W 122°21'0 0.0
2016-Dec-10 09:33N 47°33' W 122°21'0 0.0
2016-Dec-10 08:33N 47°33' W 122°21'0 0.0
2016-Dec-10 07:33N 47°33' W 122°21'0 0.0
2016-Dec-10 06:33N 47°33' W 122°21'0 0.0
2016-Dec-10 05:33N 47°33' W 122°21'0 0.0
2016-Dec-10 04:33N 47°33' W 122°21'0 0.0
2016-Dec-10 03:33N 47°33' W 122°21'0 0.0
2016-Dec-10 02:33N 47°33' W 122°21'2 2.0
2016-Dec-10 01:33N 47°35' W 122°21'0 0.0
2016-Dec-10 00:33N 47°35' W 122°21'2 2.0
2016-Dec-09 23:33N 47°33' W 122°21'  
2016-Dec-03 07:33N 47°33' W 122°21'3 2.5
2016-Dec-03 06:33N 47°36' W 122°22'6 6.3
2016-Dec-03 05:33N 47°40' W 122°28'7 7.5
2016-Dec-03 04:33N 47°48' W 122°28'8 7.7
2016-Dec-03 03:33N 47°55' W 122°31'8 7.5
2016-Dec-03 02:29N 48°02' W 122°39'28 7.1
2016-Dec-02 22:33N 48°29' W 122°45'8 8.0
2016-Dec-02 21:30N 48°38' W 122°44'7 7.7
2016-Dec-02 20:33N 48°45' W 122°47'8 8.2
2016-Dec-02 19:32N 48°49' W 122°58'8 8.4
2016-Dec-02 18:33N 48°54' W 123°08'8 8.4
2016-Dec-02 17:33N 48°60' W 123°18'6 6.1
2016-Dec-02 16:33N 49°06' W 123°19'6 6.5
2016-Dec-02 15:33N 49°07' W 123°09'6 6.1
2016-Dec-02 14:33N 49°09' W 123°01'0 0.3
2016-Dec-02 13:33N 49°09' W 123°00'0 0.0
2016-Dec-02 12:33N 49°09' W 123°00'0 0.0
2016-Dec-02 11:33N 49°09' W 123°00'0 0.0
2016-Dec-02 10:33N 49°09' W 123°00'0 0.0
2016-Dec-02 09:33N 49°09' W 123°00'0 0.0
2016-Dec-02 08:33N 49°09' W 123°00'0 0.0
2016-Dec-02 07:33N 49°09' W 123°00'0 0.0
2016-Dec-02 06:33N 49°09' W 123°00'0 0.0
2016-Dec-02 05:33N 49°09' W 123°00'0 0.0
2016-Dec-02 04:33N 49°09' W 123°00'0 0.0
2016-Dec-02 03:33N 49°09' W 123°00'0 0.0
2016-Dec-02 02:33N 49°09' W 123°00'0 0.0
2016-Dec-02 01:33N 49°09' W 123°00'0 0.0
2016-Dec-02 00:33N 49°09' W 123°00'0 0.0
2016-Dec-01 23:33N 49°09' W 123°00'0 0.0
2016-Dec-01 22:33N 49°09' W 123°00'0 0.0
2016-Dec-01 21:33N 49°09' W 123°00'0 0.0
2016-Dec-01 20:33N 49°09' W 123°00'0 0.0
2016-Dec-01 19:33N 49°09' W 123°00'0 0.0
2016-Dec-01 18:33N 49°09' W 123°00'0 0.0
2016-Dec-01 17:33N 49°09' W 123°00'0 0.0
2016-Dec-01 16:33N 49°09' W 123°00'0 0.0
2016-Dec-01 15:33N 49°09' W 123°00'0 0.0
2016-Dec-01 14:29N 49°09' W 123°00'0 0.0
2016-Dec-01 13:32N 49°09' W 123°00'0 0.0
2016-Dec-01 12:32N 49°09' W 123°00'0 0.0
2016-Dec-01 11:32N 49°09' W 123°00'0 0.0
2016-Dec-01 10:32N 49°09' W 123°00'0 0.0
2016-Dec-01 09:32N 49°09' W 123°00'0 0.0
2016-Dec-01 08:32N 49°09' W 123°00'0 0.0
2016-Dec-01 07:32N 49°09' W 123°00'0 0.0
2016-Dec-01 06:32N 49°09' W 123°00'0 0.0
2016-Dec-01 05:29N 49°09' W 123°00'0 0.0
2016-Dec-01 04:32N 49°09' W 123°00'0 0.0
2016-Dec-01 03:32N 49°09' W 123°00'0 0.0
2016-Dec-01 02:32N 49°09' W 123°00'0 0.0
2016-Dec-01 01:32N 49°09' W 123°00'0 0.0
2016-Dec-01 00:29N 49°09' W 123°00'  
Track history (hours):
 
Tides and Currents Weather Stations Pressure Air Temp Water Temp Dewpoint Dewpoint Depression Visibility Wind Speed Wind Dir Waves Ship Positions

M. Luther

Owner: Salmon Bay Barge Line, Inc., Seattle, WA. More information available from US FCC via Universal Licensing System and Coast Guard Vessel Documentation Center.

Last reported at 2016-Dec-10 23:33 UTC. Time now 2016-Dec-11 00:29 UTC.
Position N 47°33' W 122°21'.

Length 28 m; draft 4.1 m.

Type: Tow > 200 m length. MMSI: 367070410.

Date/timePositionNaut miles runAvg speedWind from/ knotsBaromVisibWave heightAir tempDewpointWater temp
2016-Dec-10 23:33N 47°33' W 122°21'0 0.0
2016-Dec-10 22:33N 47°33' W 122°21'0 0.0
2016-Dec-10 21:33N 47°33' W 122°21'0 0.0
2016-Dec-10 20:33N 47°33' W 122°21'0 0.0
2016-Dec-10 19:33N 47°33' W 122°21'0 0.0
2016-Dec-10 18:33N 47°33' W 122°21'0 0.0
2016-Dec-10 17:33N 47°33' W 122°21'0 0.0
2016-Dec-10 16:33N 47°33' W 122°21'0 0.0
2016-Dec-10 15:33N 47°33' W 122°21'0 0.0
2016-Dec-10 14:33N 47°33' W 122°21'0 0.0
2016-Dec-10 13:33N 47°33' W 122°21'0 0.0
2016-Dec-10 12:33N 47°33' W 122°21'0 0.0
2016-Dec-10 11:33N 47°33' W 122°21'0 0.0
2016-Dec-10 10:33N 47°33' W 122°21'0 0.0
2016-Dec-10 09:33N 47°33' W 122°21'0 0.0
2016-Dec-10 08:33N 47°33' W 122°21'0 0.0
2016-Dec-10 07:33N 47°33' W 122°21'0 0.0
2016-Dec-10 06:33N 47°33' W 122°21'0 0.0
2016-Dec-10 05:33N 47°33' W 122°21'0 0.0
2016-Dec-10 04:33N 47°33' W 122°21'0 0.0
2016-Dec-10 03:33N 47°33' W 122°21'0 0.0
2016-Dec-10 02:33N 47°33' W 122°21'2 2.0
2016-Dec-10 01:33N 47°35' W 122°21'0 0.0
2016-Dec-10 00:33N 47°35' W 122°21'2 2.0
2016-Dec-09 23:33N 47°33' W 122°21'  
2016-Dec-03 07:33N 47°33' W 122°21'3 2.5
2016-Dec-03 06:33N 47°36' W 122°22'6 6.3
2016-Dec-03 05:33N 47°40' W 122°28'7 7.5
2016-Dec-03 04:33N 47°48' W 122°28'8 7.7
2016-Dec-03 03:33N 47°55' W 122°31'8 7.5
2016-Dec-03 02:29N 48°02' W 122°39'28 7.1
2016-Dec-02 22:33N 48°29' W 122°45'8 8.0
2016-Dec-02 21:30N 48°38' W 122°44'7 7.7
2016-Dec-02 20:33N 48°45' W 122°47'8 8.2
2016-Dec-02 19:32N 48°49' W 122°58'8 8.4
2016-Dec-02 18:33N 48°54' W 123°08'8 8.4
2016-Dec-02 17:33N 48°60' W 123°18'6 6.1
2016-Dec-02 16:33N 49°06' W 123°19'6 6.5
2016-Dec-02 15:33N 49°07' W 123°09'6 6.1
2016-Dec-02 14:33N 49°09' W 123°01'0 0.3
2016-Dec-02 13:33N 49°09' W 123°00'0 0.0
2016-Dec-02 12:33N 49°09' W 123°00'0 0.0
2016-Dec-02 11:33N 49°09' W 123°00'0 0.0
2016-Dec-02 10:33N 49°09' W 123°00'0 0.0
2016-Dec-02 09:33N 49°09' W 123°00'0 0.0
2016-Dec-02 08:33N 49°09' W 123°00'0 0.0
2016-Dec-02 07:33N 49°09' W 123°00'0 0.0
2016-Dec-02 06:33N 49°09' W 123°00'0 0.0
2016-Dec-02 05:33N 49°09' W 123°00'0 0.0
2016-Dec-02 04:33N 49°09' W 123°00'0 0.0
2016-Dec-02 03:33N 49°09' W 123°00'0 0.0
2016-Dec-02 02:33N 49°09' W 123°00'0 0.0
2016-Dec-02 01:33N 49°09' W 123°00'0 0.0
2016-Dec-02 00:33N 49°09' W 123°00'0 0.0
2016-Dec-01 23:33N 49°09' W 123°00'0 0.0
2016-Dec-01 22:33N 49°09' W 123°00'0 0.0
2016-Dec-01 21:33N 49°09' W 123°00'0 0.0
2016-Dec-01 20:33N 49°09' W 123°00'0 0.0
2016-Dec-01 19:33N 49°09' W 123°00'0 0.0
2016-Dec-01 18:33N 49°09' W 123°00'0 0.0
2016-Dec-01 17:33N 49°09' W 123°00'0 0.0
2016-Dec-01 16:33N 49°09' W 123°00'0 0.0
2016-Dec-01 15:33N 49°09' W 123°00'0 0.0
2016-Dec-01 14:29N 49°09' W 123°00'0 0.0
2016-Dec-01 13:32N 49°09' W 123°00'0 0.0
2016-Dec-01 12:32N 49°09' W 123°00'0 0.0
2016-Dec-01 11:32N 49°09' W 123°00'0 0.0
2016-Dec-01 10:32N 49°09' W 123°00'0 0.0
2016-Dec-01 09:32N 49°09' W 123°00'0 0.0
2016-Dec-01 08:32N 49°09' W 123°00'0 0.0
2016-Dec-01 07:32N 49°09' W 123°00'0 0.0
2016-Dec-01 06:32N 49°09' W 123°00'0 0.0
2016-Dec-01 05:29N 49°09' W 123°00'0 0.0
2016-Dec-01 04:32N 49°09' W 123°00'0 0.0
2016-Dec-01 03:32N 49°09' W 123°00'0 0.0
2016-Dec-01 02:32N 49°09' W 123°00'0 0.0
2016-Dec-01 01:32N 49°09' W 123°00'0 0.0
2016-Dec-01 00:29N 49°09' W 123°00'  

Dump ship's entire track history